createdAt,value
2016-12-13T00:01:02.624Z,57.14
2016-12-13T00:01:48.053Z,56.85
2016-12-13T00:02:47.766Z,57.14
2016-12-13T00:03:48.094Z,56.95
2016-12-13T00:04:47.819Z,56.95
2016-12-13T00:05:48.158Z,56.85
2016-12-13T00:06:48.168Z,57.05
2016-12-13T00:07:47.901Z,56.95
2016-12-13T00:08:48.230Z,56.76
2016-12-13T00:09:47.963Z,57.05
2016-12-13T00:10:48.279Z,57.05
2016-12-13T00:11:48.017Z,56.95
2016-12-13T00:12:48.045Z,57.14
2016-12-13T00:13:48.378Z,57.34
2016-12-13T00:14:48.402Z,56.85
2016-12-13T00:15:48.423Z,57.14
2016-12-13T00:16:48.164Z,56.95
2016-12-13T00:17:48.177Z,56.95
2016-12-13T00:18:48.206Z,57.05
2016-12-13T00:19:48.543Z,57.24
2016-12-13T00:20:48.571Z,56.95
2016-12-13T00:21:48.604Z,57.24
2016-12-13T00:22:48.321Z,56.95
2016-12-13T00:23:48.654Z,56.95
2016-12-13T00:24:48.678Z,57.14
2016-12-13T00:25:48.707Z,56.76
2016-12-13T00:26:48.732Z,56.95
2016-12-13T00:27:48.760Z,57.14
2016-12-13T00:28:48.488Z,56.95
2016-12-13T00:29:48.818Z,57.14
2016-12-13T00:30:48.847Z,57.14
2016-12-13T00:31:48.871Z,56.95
2016-12-13T00:32:48.603Z,56.95
2016-12-13T00:33:48.928Z,56.95
2016-12-13T00:34:48.654Z,57.14
2016-12-13T00:35:48.979Z,56.85
2016-12-13T00:36:48.711Z,56.95
2016-12-13T00:37:49.041Z,57.82
2016-12-13T00:38:49.069Z,57.82
2016-12-13T00:39:49.097Z,57.5
2016-12-13T00:40:48.818Z,57.82
2016-12-13T00:41:48.847Z,57.79
2016-12-13T00:42:49.180Z,57.6
2016-12-13T00:43:49.208Z,57.43
2016-12-13T00:44:49.233Z,57.4
2016-12-13T00:45:48.958Z,57.62
2016-12-13T00:46:48.991Z,57.5
2016-12-13T00:47:49.316Z,57.69
2016-12-13T00:48:49.336Z,57.6
2016-12-13T00:49:49.368Z,57.6
2016-12-13T00:50:49.401Z,57.21
2016-12-13T00:51:49.122Z,57.5
2016-12-13T00:52:49.151Z,57.4
2016-12-13T00:53:49.485Z,57.6
2016-12-13T00:54:49.224Z,57.5
2016-12-13T00:55:49.546Z,57.21
2016-12-13T00:56:49.566Z,57.21
2016-12-13T00:57:49.590Z,57.4
2016-12-13T00:58:49.630Z,57.21
2016-12-13T00:59:49.640Z,57.5
2016-12-13T01:00:49.673Z,57.6
2016-12-13T01:01:49.701Z,57.21
2016-12-13T01:02:49.422Z,57.4
2016-12-13T01:03:49.459Z,57.6
2016-12-13T01:04:49.784Z,57.4
2016-12-13T01:05:49.508Z,57.69
2016-12-13T01:06:49.540Z,57.4
2016-12-13T01:07:49.865Z,57.12
2016-12-13T01:08:49.899Z,57.4
2016-12-13T01:09:49.923Z,57.6
2016-12-13T01:10:49.956Z,57.31
2016-12-13T01:11:49.676Z,57.21
2016-12-13T01:12:50.016Z,57.4
2016-12-13T01:13:50.034Z,57.31
2016-12-13T01:14:49.755Z,57.5
2016-12-13T01:15:50.088Z,57.4
2016-12-13T01:16:49.816Z,57.69
2016-12-13T01:17:49.841Z,57.4
2016-12-13T01:18:49.874Z,57.69
2016-12-13T01:19:49.895Z,57.5
2016-12-13T01:20:49.927Z,57.12
2016-12-13T01:21:50.256Z,57.4
2016-12-13T01:22:50.277Z,57.21
2016-12-13T01:23:50.301Z,57.5
2016-12-13T01:24:50.334Z,57.31
2016-12-13T01:25:50.371Z,57.21
2016-12-13T01:26:50.400Z,57.21
2016-12-13T01:27:50.116Z,57.5
2016-12-13T01:28:50.445Z,57.5
2016-12-13T01:29:50.482Z,57.69
2016-12-13T01:30:50.498Z,57.89
2016-12-13T01:31:50.223Z,57.69
2016-12-13T01:32:50.255Z,57.4
2016-12-13T01:33:50.584Z,57.69
2016-12-13T01:34:50.613Z,57.4
2016-12-13T01:35:50.642Z,57.4
2016-12-13T01:36:50.363Z,57.5
2016-12-13T01:37:50.692Z,57.79
2016-12-13T01:38:50.746Z,57.69
2016-12-13T01:39:50.441Z,57.5
2016-12-13T01:40:50.781Z,57.69
2016-12-13T01:41:50.502Z,57.76
2016-12-13T01:42:50.835Z,57.89
2016-12-13T01:43:50.547Z,57.5
2016-12-13T01:44:50.585Z,57.4
2016-12-13T01:45:50.913Z,57.5
2016-12-13T01:46:50.938Z,57.5
2016-12-13T01:47:50.962Z,57.79
2016-12-13T01:48:50.991Z,57.57
2016-12-13T01:49:51.020Z,57.6
2016-12-13T01:50:51.053Z,57.47
2016-12-13T01:51:51.073Z,57.6
2016-12-13T01:52:50.803Z,57.4
2016-12-13T01:53:51.134Z,57.4
2016-12-13T01:54:51.151Z,57.57
2016-12-13T01:55:51.186Z,57.57
2016-12-13T01:56:51.213Z,57.57
2016-12-13T01:57:51.238Z,57.57
2016-12-13T01:58:51.267Z,57.37
2016-12-13T01:59:51.300Z,57.5
2016-12-13T02:00:51.326Z,57.86
2016-12-13T02:01:51.049Z,57.57
2016-12-13T02:02:51.389Z,57.86
2016-12-13T02:03:51.094Z,57.37
2016-12-13T02:04:51.431Z,57.5
2016-12-13T02:05:51.156Z,57.86
2016-12-13T02:06:51.496Z,57.47
2016-12-13T02:07:51.525Z,57.37
2016-12-13T02:08:51.542Z,57.67
2016-12-13T02:09:51.566Z,57.37
2016-12-13T02:10:51.599Z,57.37
2016-12-13T02:11:51.619Z,57.57
2016-12-13T02:12:51.340Z,57.37
2016-12-13T02:13:51.677Z,57.47
2016-12-13T02:14:51.706Z,57.47
2016-12-13T02:15:51.734Z,57.47
2016-12-13T02:16:51.763Z,57.37
2016-12-13T02:17:51.792Z,57.57
2016-12-13T02:18:51.805Z,57.37
2016-12-13T02:19:51.534Z,57.37
2016-12-13T02:20:51.862Z,57.86
2016-12-13T02:21:51.895Z,57.37
2016-12-13T02:22:51.928Z,57.37
2016-12-13T02:23:51.961Z,57.37
2016-12-13T02:24:51.676Z,57.67
2016-12-13T02:25:52.007Z,57.57
2016-12-13T02:26:52.031Z,57.47
2016-12-13T02:27:52.059Z,57.47
2016-12-13T02:28:52.076Z,57.57
2016-12-13T02:29:51.813Z,57.47
2016-12-13T02:30:51.833Z,57.57
2016-12-13T02:31:52.178Z,57.47
2016-12-13T02:32:52.199Z,57.37
2016-12-13T02:33:51.924Z,57.47
2016-12-13T02:34:51.947Z,57.28
2016-12-13T02:35:52.273Z,57.76
2016-12-13T02:36:52.301Z,57.67
2016-12-13T02:37:52.334Z,57.37
2016-12-13T02:38:52.357Z,57.67
2016-12-13T02:39:52.392Z,57.37
2016-12-13T02:40:52.113Z,57.86
2016-12-13T02:41:52.441Z,57.76
2016-12-13T02:42:52.466Z,57.37
2016-12-13T02:43:52.495Z,57.67
2016-12-13T02:44:52.223Z,57.57
2016-12-13T02:45:52.248Z,57.47
2016-12-13T02:46:52.583Z,57.47
2016-12-13T02:47:52.302Z,57.76
2016-12-13T02:48:52.334Z,57.67
2016-12-13T02:49:52.659Z,57.76
2016-12-13T02:50:52.680Z,57.37
2016-12-13T02:51:52.412Z,57.37
2016-12-13T02:52:52.737Z,57.18
2016-12-13T02:53:52.462Z,57.76
2016-12-13T02:54:52.791Z,57.76
2016-12-13T02:55:52.823Z,57.09
2016-12-13T02:56:52.540Z,57.37
2016-12-13T02:57:52.886Z,57.37
2016-12-13T02:58:52.594Z,57.28
2016-12-13T02:59:52.930Z,56.8
2016-12-13T03:00:52.655Z,57.09
2016-12-13T03:01:52.988Z,57.76
2016-12-13T03:02:53.016Z,57.37
2016-12-13T03:03:52.741Z,57.09
2016-12-13T03:04:53.066Z,56.9
2016-12-13T03:05:53.098Z,57.09
2016-12-13T03:06:52.811Z,56.8
2016-12-13T03:07:53.141Z,56.9
2016-12-13T03:08:53.181Z,56.6
2016-12-13T03:09:53.201Z,56.9
2016-12-13T03:10:53.238Z,56.9
2016-12-13T03:11:52.955Z,56.99
2016-12-13T03:12:53.292Z,57.28
2016-12-13T03:13:53.316Z,57.09
2016-12-13T03:14:53.328Z,57.09
2016-12-13T03:15:53.057Z,56.99
2016-12-13T03:16:53.386Z,56.9
2016-12-13T03:17:53.115Z,56.87
2016-12-13T03:18:53.440Z,56.9
2016-12-13T03:19:53.168Z,56.77
2016-12-13T03:20:53.201Z,56.77
2016-12-13T03:21:53.221Z,56.87
2016-12-13T03:22:53.250Z,56.87
2016-12-13T03:23:53.579Z,56.9
2016-12-13T03:24:53.304Z,56.99
2016-12-13T03:25:53.636Z,56.8
2016-12-13T03:26:53.361Z,56.77
2016-12-13T03:27:53.386Z,56.67
2016-12-13T03:28:53.419Z,56.96
2016-12-13T03:29:53.744Z,56.9
2016-12-13T03:30:53.468Z,56.77
2016-12-13T03:31:53.489Z,56.77
2016-12-13T03:32:53.522Z,56.67
2016-12-13T03:33:53.562Z,57.15
2016-12-13T03:34:53.579Z,56.29
2016-12-13T03:35:53.908Z,56.58
2016-12-13T03:36:53.633Z,56.48
2016-12-13T03:37:53.961Z,56.51
2016-12-13T03:38:53.990Z,56.67
2016-12-13T03:39:53.706Z,56.38
2016-12-13T03:40:54.039Z,56.48
2016-12-13T03:41:54.072Z,56.41
2016-12-13T03:42:54.097Z,56.29
2016-12-13T03:43:54.125Z,56.12
2016-12-13T03:44:54.154Z,56.2
2016-12-13T03:45:54.178Z,56.1
2016-12-13T03:46:54.197Z,56.29
2016-12-13T03:47:54.232Z,56.1
2016-12-13T03:48:54.256Z,56.29
2016-12-13T03:49:54.290Z,56.2
2016-12-13T03:50:54.007Z,56.2
2016-12-13T03:51:54.347Z,56.2
2016-12-13T03:52:54.371Z,56.29
2016-12-13T03:53:54.400Z,56.2
2016-12-13T03:54:54.422Z,56.48
2016-12-13T03:55:54.445Z,56.2
2016-12-13T03:56:54.474Z,56.38
2016-12-13T03:57:54.195Z,56.38
2016-12-13T03:58:54.531Z,56.48
2016-12-13T03:59:54.565Z,56.48
2016-12-13T04:00:54.272Z,56.38
2016-12-13T04:01:54.610Z,56.38
2016-12-13T04:02:54.632Z,56.2
2016-12-13T04:03:54.663Z,55.81
2016-12-13T04:04:54.687Z,56
2016-12-13T04:05:54.416Z,55.81
2016-12-13T04:06:54.747Z,55.9
2016-12-13T04:07:54.773Z,55.9
2016-12-13T04:08:54.809Z,55.71
2016-12-13T04:09:54.828Z,55.71
2016-12-13T04:10:54.847Z,55.9
2016-12-13T04:11:54.876Z,55.62
2016-12-13T04:12:54.908Z,55.71
2016-12-13T04:13:54.934Z,55.71
2016-12-13T04:14:54.974Z,55.71
2016-12-13T04:15:54.987Z,55.62
2016-12-13T04:16:54.711Z,55.81
2016-12-13T04:17:54.740Z,55.62
2016-12-13T04:18:54.764Z,55.52
2016-12-13T04:19:55.093Z,55.71
2016-12-13T04:20:55.117Z,55.62
2016-12-13T04:21:55.147Z,55.52
2016-12-13T04:22:55.171Z,55.52
2016-12-13T04:23:55.212Z,55.52
2016-12-13T04:24:54.933Z,55.81
2016-12-13T04:25:54.952Z,55.62
2016-12-13T04:26:54.973Z,55.9
2016-12-13T04:27:55.308Z,55.81
2016-12-13T04:28:55.039Z,55.81
2016-12-13T04:29:55.370Z,55.81
2016-12-13T04:30:55.384Z,55.71
2016-12-13T04:31:55.117Z,56
2016-12-13T04:32:55.451Z,55.71
2016-12-13T04:33:55.475Z,55.9
2016-12-13T04:34:55.508Z,55.52
2016-12-13T04:35:55.524Z,56.1
2016-12-13T04:36:55.249Z,55.81
2016-12-13T04:37:55.582Z,55.81
2016-12-13T04:38:55.614Z,55.52
2016-12-13T04:39:55.635Z,55.52
2016-12-13T04:40:55.660Z,55.52
2016-12-13T04:41:55.688Z,55.23
2016-12-13T04:42:55.409Z,55.43
2016-12-13T04:43:55.741Z,55.43
2016-12-13T04:44:55.466Z,55.52
2016-12-13T04:45:55.491Z,55.52
2016-12-13T04:46:55.819Z,55.71
2016-12-13T04:47:55.845Z,55.9
2016-12-13T04:48:55.877Z,55.33
2016-12-13T04:49:55.906Z,55.62
2016-12-13T04:50:55.931Z,55.62
2016-12-13T04:51:55.955Z,55.71
2016-12-13T04:52:55.976Z,55.62
2016-12-13T04:53:55.713Z,55.71
2016-12-13T04:54:56.041Z,55.23
2016-12-13T04:55:56.066Z,55.04
2016-12-13T04:56:55.791Z,55.62
2016-12-13T04:57:55.808Z,55.43
2016-12-13T04:58:55.848Z,55.43
2016-12-13T04:59:56.170Z,55.43
2016-12-13T05:00:56.198Z,55.23
2016-12-13T05:01:55.922Z,55.43
2016-12-13T05:02:56.255Z,55.43
2016-12-13T05:03:56.279Z,55.04
2016-12-13T05:04:56.317Z,55.62
2016-12-13T05:05:56.341Z,55.33
2016-12-13T05:06:56.057Z,55.52
2016-12-13T05:07:56.374Z,55.23
2016-12-13T05:08:56.411Z,54.65
2016-12-13T05:09:56.440Z,54.75
2016-12-13T05:10:56.472Z,55.04
2016-12-13T05:11:56.189Z,54.56
2016-12-13T05:12:56.222Z,54.63
2016-12-13T05:13:56.547Z,54.75
2016-12-13T05:14:56.566Z,54.85
2016-12-13T05:15:56.296Z,54.94
2016-12-13T05:16:56.621Z,55.4
2016-12-13T05:17:56.653Z,55.4
2016-12-13T05:18:56.690Z,55.23
2016-12-13T05:19:56.407Z,54.72
2016-12-13T05:20:56.431Z,55.01
2016-12-13T05:21:56.759Z,55.13
2016-12-13T05:22:56.780Z,55.01
2016-12-13T05:23:56.809Z,54.82
2016-12-13T05:24:56.843Z,54.75
2016-12-13T05:25:56.863Z,55.2
2016-12-13T05:26:56.892Z,54.75
2016-12-13T05:27:56.928Z,54.75
2016-12-13T05:28:56.641Z,54.94
2016-12-13T05:29:56.674Z,54.94
2016-12-13T05:30:57.002Z,55.04
2016-12-13T05:31:57.037Z,54.56
2016-12-13T05:32:57.060Z,54.85
2016-12-13T05:33:57.090Z,54.36
2016-12-13T05:34:57.110Z,54.27
2016-12-13T05:35:57.134Z,54.46
2016-12-13T05:36:56.863Z,54.85
2016-12-13T05:37:57.191Z,54.56
2016-12-13T05:38:57.208Z,53.98
2016-12-13T05:39:56.940Z,54.27
2016-12-13T05:40:56.965Z,54.36
2016-12-13T05:41:57.315Z,54.46
2016-12-13T05:42:57.327Z,54.36
2016-12-13T05:43:57.380Z,54.17
2016-12-13T05:44:57.077Z,54.08
2016-12-13T05:45:57.410Z,54.08
2016-12-13T05:46:57.122Z,54.3
2016-12-13T05:47:57.455Z,54
2016-12-13T05:48:57.183Z,53.88
2016-12-13T05:49:57.513Z,53.81
2016-12-13T05:50:57.551Z,53.91
2016-12-13T05:51:57.570Z,53.91
2016-12-13T05:52:57.290Z,53.81
2016-12-13T05:53:57.323Z,53.43
2016-12-13T05:54:57.646Z,53.43
2016-12-13T05:55:57.676Z,53.33
2016-12-13T05:56:57.701Z,53.62
2016-12-13T05:57:57.734Z,53.53
2016-12-13T05:58:57.759Z,53.05
2016-12-13T05:59:57.783Z,52.95
2016-12-13T06:00:57.817Z,52.85
2016-12-13T06:01:57.541Z,53.05
2016-12-13T06:02:57.562Z,52.85
2016-12-13T06:03:57.891Z,53.14
2016-12-13T06:04:57.956Z,53.05
2016-12-13T06:05:57.640Z,52.95
2016-12-13T06:06:57.976Z,53.05
2016-12-13T06:07:57.999Z,53.36
2016-12-13T06:08:58.035Z,52.69
2016-12-13T06:09:58.058Z,52.78
2016-12-13T06:10:57.776Z,52.49
2016-12-13T06:11:58.107Z,52.49
2016-12-13T06:12:57.837Z,52.66
2016-12-13T06:13:58.153Z,52.59
2016-12-13T06:14:58.190Z,52.01
2016-12-13T06:15:57.911Z,52.2
2016-12-13T06:16:57.951Z,52.11
2016-12-13T06:17:58.275Z,52.11
2016-12-13T06:18:58.001Z,52.11
2016-12-13T06:19:58.323Z,52.2
2016-12-13T06:20:58.351Z,52.11
2016-12-13T06:21:58.375Z,52.4
2016-12-13T06:22:58.408Z,52.01
2016-12-13T06:23:58.442Z,51.92
2016-12-13T06:24:58.469Z,51.62
2016-12-13T06:25:58.488Z,51.72
2016-12-13T06:26:58.519Z,51.84
2016-12-13T06:27:58.547Z,51.82
2016-12-13T06:28:58.276Z,51.36
2016-12-13T06:29:58.290Z,51.53
2016-12-13T06:30:58.623Z,51.65
2016-12-13T06:31:58.654Z,52.13
2016-12-13T06:32:58.379Z,51.84
2016-12-13T06:33:58.404Z,51.53
2016-12-13T06:34:58.733Z,51.46
2016-12-13T06:35:58.758Z,51.36
2016-12-13T06:36:58.486Z,51.36
2016-12-13T06:37:58.859Z,51.56
2016-12-13T06:38:58.539Z,51.07
2016-12-13T06:39:58.868Z,50.98
2016-12-13T06:40:58.893Z,51.07
2016-12-13T06:41:58.923Z,51.17
2016-12-13T06:42:58.951Z,51.46
2016-12-13T06:43:58.675Z,51.36
2016-12-13T06:44:59.016Z,51.17
2016-12-13T06:45:59.037Z,51.17
2016-12-13T06:46:58.759Z,51.26
2016-12-13T06:47:58.783Z,51.17
2016-12-13T06:48:58.815Z,51.26
2016-12-13T06:49:58.849Z,51.36
2016-12-13T06:50:59.168Z,51.36
2016-12-13T06:51:58.914Z,51.07
2016-12-13T06:52:58.921Z,51.46
2016-12-13T06:53:59.260Z,50.69
2016-12-13T06:54:58.984Z,50.69
2016-12-13T06:55:59.008Z,50.98
2016-12-13T06:56:59.337Z,51
2016-12-13T06:57:59.066Z,51
2016-12-13T06:58:59.394Z,50.98
2016-12-13T06:59:59.418Z,51
2016-12-13T07:00:59.135Z,50.9
2016-12-13T07:01:59.472Z,51
2016-12-13T07:02:59.497Z,50.9
2016-12-13T07:03:59.538Z,51.29
2016-12-13T07:04:59.239Z,50.13
2016-12-13T07:05:59.592Z,50.42
2016-12-13T07:06:59.304Z,50.42
2016-12-13T07:07:59.637Z,50.42
2016-12-13T07:08:59.366Z,50.23
2016-12-13T07:09:59.695Z,50.23
2016-12-13T07:10:59.419Z,50.13
2016-12-13T07:11:59.744Z,50.23
2016-12-13T07:12:59.781Z,50.42
2016-12-13T07:13:59.805Z,50.32
2016-12-13T07:14:59.834Z,50.32
2016-12-13T07:15:59.863Z,50.52
2016-12-13T07:16:59.890Z,50.32
2016-12-13T07:17:59.617Z,50.32
2016-12-13T07:18:59.641Z,50.42
2016-12-13T07:19:59.974Z,50.23
2016-12-13T07:20:59.995Z,50.23
2016-12-13T07:22:00.023Z,50.62
2016-12-13T07:22:59.748Z,50.62
2016-12-13T07:24:00.081Z,50.52
2016-12-13T07:25:00.118Z,50.52
2016-12-13T07:26:00.147Z,50.62
2016-12-13T07:26:59.864Z,50.04
2016-12-13T07:27:59.888Z,50.04
2016-12-13T07:28:59.920Z,50.52
2016-12-13T07:30:00.252Z,50.04
2016-12-13T07:30:59.974Z,49.84
2016-12-13T07:32:00.310Z,50.21
2016-12-13T07:33:00.323Z,49.94
2016-12-13T07:34:00.052Z,50.01
2016-12-13T07:35:00.407Z,50.23
2016-12-13T07:36:00.114Z,50.13
2016-12-13T07:37:00.439Z,49.84
2016-12-13T07:38:00.168Z,50.32
2016-12-13T07:39:00.192Z,49.73
2016-12-13T07:40:00.532Z,50.13
2016-12-13T07:41:00.254Z,49.82
2016-12-13T07:42:00.602Z,49.82
2016-12-13T07:43:00.611Z,50.01
2016-12-13T07:44:00.324Z,50.01
2016-12-13T07:45:00.669Z,49.63
2016-12-13T07:46:00.697Z,50.21
2016-12-13T07:47:00.724Z,49.34
2016-12-13T07:48:00.738Z,50.21
2016-12-13T07:49:00.779Z,50.3
2016-12-13T07:50:00.800Z,50.3
2016-12-13T07:51:00.830Z,49.73
2016-12-13T07:52:00.854Z,49.73
2016-12-13T07:53:00.882Z,50.01
2016-12-13T07:54:00.907Z,49.43
2016-12-13T07:55:00.940Z,49.73
2016-12-13T07:56:00.973Z,49.91
2016-12-13T07:57:01.000Z,49.82
2016-12-13T07:58:00.714Z,50.01
2016-12-13T07:59:01.047Z,49.91
2016-12-13T08:00:01.076Z,49.91
2016-12-13T08:01:00.804Z,49.91
2016-12-13T08:02:00.833Z,49.63
2016-12-13T08:03:01.153Z,49.63
2016-12-13T08:04:01.192Z,49.43
2016-12-13T08:05:01.215Z,49.53
2016-12-13T08:06:01.244Z,49.63
2016-12-13T08:07:01.265Z,49.63
2016-12-13T08:08:01.292Z,49.34
2016-12-13T08:09:01.325Z,49.63
2016-12-13T08:10:01.350Z,49.34
2016-12-13T08:11:01.379Z,49.34
2016-12-13T08:12:01.407Z,49.24
2016-12-13T08:13:01.448Z,49.34
2016-12-13T08:14:01.469Z,49.53
2016-12-13T08:15:01.493Z,49.34
2016-12-13T08:16:01.218Z,49.15
2016-12-13T08:17:01.243Z,49.63
2016-12-13T08:18:01.568Z,49.63
2016-12-13T08:19:01.604Z,49.63
2016-12-13T08:20:01.629Z,49.53
2016-12-13T08:21:01.654Z,49.53
2016-12-13T08:22:01.687Z,49.53
2016-12-13T08:23:01.411Z,49.63
2016-12-13T08:24:01.744Z,49.43
2016-12-13T08:25:01.773Z,49.63
2016-12-13T08:26:01.485Z,49.53
2016-12-13T08:27:01.821Z,49.7
2016-12-13T08:28:01.850Z,49.53
2016-12-13T08:29:01.879Z,49.34
2016-12-13T08:30:01.908Z,49.6
2016-12-13T08:31:01.929Z,49.34
2016-12-13T08:32:01.657Z,49.32
2016-12-13T08:33:01.986Z,49.7
2016-12-13T08:34:02.023Z,49.6
2016-12-13T08:35:02.047Z,49.63
2016-12-13T08:36:02.070Z,49.6
2016-12-13T08:37:01.793Z,49.6
2016-12-13T08:38:02.125Z,49.63
2016-12-13T08:39:02.151Z,49.6
2016-12-13T08:40:02.181Z,49.32
2016-12-13T08:41:02.220Z,49.7
2016-12-13T08:42:02.234Z,49.6
2016-12-13T08:43:02.270Z,49.51
2016-12-13T08:44:02.290Z,49.6
2016-12-13T08:45:02.015Z,49.02
2016-12-13T08:46:02.343Z,49.12
2016-12-13T08:47:02.372Z,49.12
2016-12-13T08:48:02.396Z,49.41
2016-12-13T08:49:02.442Z,49.6
2016-12-13T08:50:02.453Z,49.41
2016-12-13T08:51:02.191Z,49.22
2016-12-13T08:52:02.511Z,49.02
2016-12-13T08:53:02.540Z,48.83
2016-12-13T08:54:02.262Z,49.32
2016-12-13T08:55:02.590Z,49.02
2016-12-13T08:56:02.311Z,48.83
2016-12-13T08:57:02.651Z,48.93
2016-12-13T08:58:02.676Z,49.41
2016-12-13T08:59:02.706Z,49.02
2016-12-13T09:00:02.725Z,49.12
2016-12-13T09:01:02.758Z,49.32
2016-12-13T09:02:02.506Z,49.12
2016-12-13T09:03:02.816Z,49.12
2016-12-13T09:04:02.541Z,49.12
2016-12-13T09:05:02.869Z,49.32
2016-12-13T09:06:02.898Z,49.41
2016-12-13T09:07:02.925Z,48.74
2016-12-13T09:08:02.947Z,49.41
2016-12-13T09:09:02.977Z,49.02
2016-12-13T09:10:02.997Z,49.22
2016-12-13T09:11:03.030Z,49.02
2016-12-13T09:12:02.755Z,48.83
2016-12-13T09:13:03.083Z,48.83
2016-12-13T09:14:03.116Z,49.02
2016-12-13T09:15:03.145Z,48.83
2016-12-13T09:16:03.170Z,48.83
2016-12-13T09:17:02.890Z,49.12
2016-12-13T09:18:02.923Z,49.02
2016-12-13T09:19:03.256Z,48.83
2016-12-13T09:20:03.284Z,48.83
2016-12-13T09:21:03.005Z,49.32
2016-12-13T09:22:03.340Z,49.32
2016-12-13T09:23:03.366Z,49.29
2016-12-13T09:24:03.093Z,49.32
2016-12-13T09:25:03.119Z,49.32
2016-12-13T09:26:03.445Z,49.12
2016-12-13T09:27:03.469Z,49.22
2016-12-13T09:28:03.495Z,49.02
2016-12-13T09:29:03.223Z,49.02
2016-12-13T09:30:03.553Z,49.32
2016-12-13T09:31:03.278Z,49.22
2016-12-13T09:32:03.616Z,49.32
2016-12-13T09:33:03.638Z,49.22
2016-12-13T09:34:03.667Z,49.32
2016-12-13T09:35:03.392Z,49.29
2016-12-13T09:36:03.720Z,49.32
2016-12-13T09:37:03.741Z,49.22
2016-12-13T09:38:03.781Z,49.12
2016-12-13T09:39:03.802Z,49.41
2016-12-13T09:40:03.831Z,49.12
2016-12-13T09:41:03.556Z,49.12
2016-12-13T09:42:03.889Z,49.02
2016-12-13T09:43:03.615Z,49.1
2016-12-13T09:44:03.638Z,49.38
2016-12-13T09:45:03.963Z,49.38
2016-12-13T09:46:03.691Z,49.29
2016-12-13T09:47:03.716Z,49
2016-12-13T09:48:04.053Z,49.29
2016-12-13T09:49:04.081Z,49
2016-12-13T09:50:04.106Z,48.71
2016-12-13T09:51:03.819Z,49.1
2016-12-13T09:52:03.856Z,48.9
2016-12-13T09:53:04.180Z,49.29
2016-12-13T09:54:03.905Z,49.1
2016-12-13T09:55:04.246Z,49.1
2016-12-13T09:56:04.271Z,48.9
2016-12-13T09:57:03.987Z,49
2016-12-13T09:58:04.320Z,49
2016-12-13T09:59:04.049Z,49.1
2016-12-13T10:00:04.079Z,48.9
2016-12-13T10:01:04.407Z,48.83
2016-12-13T10:02:04.423Z,48.74
2016-12-13T10:03:04.455Z,49.12
2016-12-13T10:04:04.484Z,48.81
2016-12-13T10:05:04.520Z,49.1
2016-12-13T10:06:04.548Z,49.1
2016-12-13T10:07:04.262Z,49
2016-12-13T10:08:04.599Z,49.12
2016-12-13T10:09:04.628Z,48.83
2016-12-13T10:10:04.649Z,49.1
2016-12-13T10:11:04.673Z,48.74
2016-12-13T10:12:04.706Z,48.83
2016-12-13T10:13:04.733Z,48.93
2016-12-13T10:14:04.761Z,48.93
2016-12-13T10:15:04.536Z,49.12
2016-12-13T10:16:04.817Z,49.41
2016-12-13T10:17:04.538Z,49.48
2016-12-13T10:18:04.864Z,48.93
2016-12-13T10:19:04.596Z,48.93
2016-12-13T10:20:04.932Z,49.12
2016-12-13T10:21:04.645Z,49.12
2016-12-13T10:22:04.982Z,49.12
2016-12-13T10:23:05.003Z,48.93
2016-12-13T10:24:04.735Z,48.83
2016-12-13T10:25:04.765Z,48.93
2016-12-13T10:26:04.784Z,48.83
2016-12-13T10:27:04.814Z,48.93
2016-12-13T10:28:05.141Z,49.32
2016-12-13T10:29:05.171Z,49.02
2016-12-13T10:30:05.195Z,48.93
2016-12-13T10:31:05.232Z,48.74
2016-12-13T10:32:04.949Z,48.93
2016-12-13T10:33:05.285Z,49.12
2016-12-13T10:34:05.306Z,49.02
2016-12-13T10:35:05.343Z,49.02
2016-12-13T10:36:05.056Z,49.41
2016-12-13T10:37:05.080Z,49.41
2016-12-13T10:38:05.422Z,48.83
2016-12-13T10:39:05.446Z,49.15
2016-12-13T10:40:05.474Z,48.83
2016-12-13T10:41:05.495Z,49.12
2016-12-13T10:42:05.528Z,49.05
2016-12-13T10:43:05.550Z,48.93
2016-12-13T10:44:05.287Z,48.93
2016-12-13T10:45:05.311Z,48.95
2016-12-13T10:46:05.640Z,48.47
2016-12-13T10:47:05.660Z,48.95
2016-12-13T10:48:05.688Z,47.89
2016-12-13T10:49:05.719Z,45.94
2016-12-13T10:50:05.446Z,44.52
2016-12-13T10:51:05.476Z,44.21
2016-12-13T10:52:05.800Z,43.24
2016-12-13T10:53:05.837Z,44.11
2016-12-13T10:54:05.853Z,45.84
2016-12-13T10:55:05.584Z,44.79
2016-12-13T10:56:05.603Z,45.44
2016-12-13T10:57:05.944Z,44.48
2016-12-13T10:58:05.964Z,43.99
2016-12-13T10:59:05.689Z,43.61
2016-12-13T11:00:06.022Z,42.65
2016-12-13T11:01:05.746Z,42.65
2016-12-13T11:02:06.070Z,42.36
2016-12-13T11:03:05.804Z,44.74
2016-12-13T11:04:06.128Z,41.95
2016-12-13T11:05:06.155Z,42.33
2016-12-13T11:06:06.186Z,42.43
2016-12-13T11:07:05.912Z,42.03
2016-12-13T11:08:06.243Z,43.57
2016-12-13T11:09:06.265Z,43.28
2016-12-13T11:10:06.294Z,44.99
2016-12-13T11:11:06.317Z,44.79
2016-12-13T11:12:06.356Z,42.97
2016-12-13T11:13:06.063Z,43.26
2016-12-13T11:14:06.100Z,44.6
2016-12-13T11:15:06.128Z,45.37
2016-12-13T11:16:06.462Z,46.04
2016-12-13T11:17:06.182Z,44.41
2016-12-13T11:18:06.507Z,43.54
2016-12-13T11:19:06.543Z,43.07
2016-12-13T11:20:06.267Z,43.45
2016-12-13T11:21:06.601Z,43.35
2016-12-13T11:22:06.617Z,44.12
2016-12-13T11:23:06.651Z,43.93
2016-12-13T11:24:06.671Z,44.41
2016-12-13T11:25:06.696Z,44.99
2016-12-13T11:26:06.421Z,42.87
2016-12-13T11:27:06.758Z,43.07
2016-12-13T11:28:06.784Z,42.39
2016-12-13T11:29:06.803Z,43.81
2016-12-13T11:30:06.844Z,43.71
2016-12-13T11:31:06.860Z,43.14
2016-12-13T11:32:06.893Z,42.94
2016-12-13T11:33:06.914Z,43.23
2016-12-13T11:34:06.944Z,43.7
2016-12-13T11:35:06.664Z,44.17
2016-12-13T11:36:06.696Z,45.61
2016-12-13T11:37:07.028Z,47.05
2016-12-13T11:38:06.741Z,47.15
2016-12-13T11:39:07.070Z,47.15
2016-12-13T11:40:07.107Z,47.46
2016-12-13T11:41:06.828Z,47.27
2016-12-13T11:42:06.857Z,47.36
2016-12-13T11:43:07.189Z,47.2
2016-12-13T11:44:07.209Z,46.89
2016-12-13T11:45:07.234Z,46.91
2016-12-13T11:46:07.256Z,46.43
2016-12-13T11:47:07.296Z,46.23
2016-12-13T11:48:07.321Z,46.14
2016-12-13T11:49:07.038Z,46.33
2016-12-13T11:50:07.127Z,46.14
2016-12-13T11:51:07.387Z,46.36
2016-12-13T11:52:07.119Z,46.36
2016-12-13T11:53:07.444Z,46.26
2016-12-13T11:54:07.469Z,46.64
2016-12-13T11:55:07.499Z,46.55
2016-12-13T11:56:07.223Z,46.16
2016-12-13T11:57:07.560Z,46.26
2016-12-13T11:58:07.588Z,46.26
2016-12-13T11:59:07.305Z,46.55
2016-12-13T12:00:07.333Z,46.36
2016-12-13T12:01:07.662Z,46.36
2016-12-13T12:02:07.691Z,46.26
2016-12-13T12:03:07.412Z,47.05
2016-12-13T12:04:07.749Z,47.15
2016-12-13T12:05:07.470Z,47.53
2016-12-13T12:06:07.797Z,47.44
2016-12-13T12:07:07.523Z,47.15
2016-12-13T12:08:07.548Z,47.24
2016-12-13T12:09:07.876Z,47.63
2016-12-13T12:10:07.905Z,47.44
2016-12-13T12:11:07.930Z,47.24
2016-12-13T12:12:07.950Z,47.34
2016-12-13T12:13:07.983Z,47.92
2016-12-13T12:14:08.016Z,48.21
2016-12-13T12:15:08.036Z,47.63
2016-12-13T12:16:08.061Z,47.82
2016-12-13T12:17:08.090Z,47.72
2016-12-13T12:18:07.811Z,48.11
2016-12-13T12:19:07.843Z,48.02
2016-12-13T12:20:08.173Z,47.82
2016-12-13T12:21:07.897Z,47.63
2016-12-13T12:22:08.230Z,48.11
2016-12-13T12:23:08.263Z,47.92
2016-12-13T12:24:08.279Z,47.94
2016-12-13T12:25:08.308Z,47.82
2016-12-13T12:26:08.332Z,48.21
2016-12-13T12:27:08.373Z,47.94
2016-12-13T12:28:08.086Z,47.53
2016-12-13T12:29:08.422Z,47.92
2016-12-13T12:30:08.139Z,48.11
2016-12-13T12:31:08.468Z,48.02
2016-12-13T12:32:08.193Z,47.44
2016-12-13T12:33:08.222Z,47.94
2016-12-13T12:34:08.558Z,47.85
2016-12-13T12:35:08.283Z,47.46
2016-12-13T12:36:08.604Z,47.75
2016-12-13T12:37:08.328Z,47.46
2016-12-13T12:38:08.664Z,47.65
2016-12-13T12:39:08.391Z,47.65
2016-12-13T12:40:08.715Z,47.36
2016-12-13T12:41:08.435Z,47.36
2016-12-13T12:42:08.764Z,47.56
2016-12-13T12:43:08.801Z,47.65
2016-12-13T12:44:08.817Z,47.56
2016-12-13T12:45:08.851Z,47.85
2016-12-13T12:46:08.566Z,47.75
2016-12-13T12:47:08.600Z,47.94
2016-12-13T12:48:08.940Z,47.27
2016-12-13T12:49:08.959Z,47.85
2016-12-13T12:50:08.995Z,47.75
2016-12-13T12:51:09.014Z,47.85
2016-12-13T12:52:09.039Z,48.43
2016-12-13T12:53:08.763Z,48.33
2016-12-13T12:54:08.808Z,48.52
2016-12-13T12:55:09.133Z,49.1
2016-12-13T12:56:08.846Z,49.48
2016-12-13T12:57:09.178Z,49.87
2016-12-13T12:58:09.199Z,50.15